Bryson City, NC (28713)

07:13 EDT le 01 septembre 2014 (GMT -0400)
Buckner Branch | Change Station
CLOSE
Current Station
Stations météorologiques personnelles
Location: Bryson City, NC
Altitude: 1900 ft
Stations météo à proximité

Alt. 1900 ft 35.42 °N, 83.48 °W | Updated 11 minutes ago

Brouillard
Brouillard
67.5 ° F
Paraît 67.5 ° F
N
0.0
Vent Variable Vent de OSO

Aujourd'hui
Haut(e) -- | Bas -- ° F
--% Risque de précip.
Hier
Haut(e) -- | Bas -- ° F
Precip. -- pouce
7:06 AM 8:00 PM
Lune montante, 40% visible
Pression 30.23 pouce
Visibilité 0.8 Miles terrestres
Nuages
Point de rosée 66 ° F
Humidité 95%
Précipitations 0.00 pouce
Profondeur de la couche neigeuse Non disponible.
UV Non disponible.
Pollen 7.00 sur 12
Ozone Bon
PM2.5 Bon
Flu Activity Non disponible.
METAR K1A5 011055Z AUTO 00000KT 3/4SM BR 18/18 A3023 RMK AO2 T01770176

More Conditions Fewer Conditions

Pression 30.23 pouce
Visibilité 0.8 Miles terrestres
Nuages
Point de rosée 66 ° F
Humidité 95%
Précipitations 0.00 pouce
Profondeur de la couche neigeuse Non disponible.
UV Non disponible.
Pollen 7.00 sur 12
Ozone Bon
PM2.5 Bon
Flu Activity Non disponible.
METAR K1A5 011055Z AUTO 00000KT 3/4SM BR 18/18 A3023 RMK AO2 T01770176

More Conditions Fewer Conditions

10-Day Weather Forecast

Almanac

Astronomie

Sep. 01, 2014 Lever Coucher
Temps réel 07:06 EDT 20:00 EDT
Crépuscule civil 06:40 EDT 20:26 EDT
Crépuscule nautique 06:09 EDT 20:57 EDT
Crépuscule astronomique 05:37 EDT 21:29 EDT
Lune 13:36 EDT Pas de coucher de lune
Durée de lumière visible 13h 46m
Longueur du jour
12h 54m
Tomorrow will be 2m 8s shorter.
Lune montante, 40% of the Moon is Illuminated
Aujourd'hui
Lune montante
Sep 2
Premier quartier
Sep 8
Pleine lune
Sep 15
Dernier quartier
Sep 24
Nouveau

Extrêmes aujourd'hui

State Highs State Lows

Community

WunderPhotos

Upload Photos

1,749,188 Photos téléchargées !

Nearby

Qualité de l'air

  Qualité de l'air Indice de la qualité de l'air Polluant
Hier Bon
PM2.5
Hier Bon
OZONE
Actuel Bon
PM2.5
Actuel Bon
OZONE
lundi Bon
OZONE
lundi Bon
PM2.5
mardi Bon
PM2.5
mardi Bon
OZONE
mercredi Bon
PM2.5
mercredi Bon
OZONE

Épaisseur de neige

Station Depth Altitude
Pas de nouvelles chutes de neige

Activité sismique

Ville Distance Mag. Time & Date
No recent earthquake activity has been reported nearby.
Minimum magnitude displayed is 2.5.

Températures des eaux côtières

Lieu Température
Aucun rapport de station

Stations météo à proximité